sensor_id;sensor_type;location;lat;lon;timestamp;pressure;altitude;pressure_sealevel;temperature;humidity
40730;BME280;26418;50.070;8.436;2024-01-07T00:01:46;99589.47;;;4.23;98.89
40730;BME280;26418;50.070;8.436;2024-01-07T00:04:14;99592.16;;;4.23;99.46
40730;BME280;26418;50.070;8.436;2024-01-07T00:06:40;99594.56;;;4.24;99.40
40730;BME280;26418;50.070;8.436;2024-01-07T00:09:05;99589.19;;;4.14;98.93
40730;BME280;26418;50.070;8.436;2024-01-07T00:11:31;99586.47;;;4.04;99.43
40730;BME280;26418;50.070;8.436;2024-01-07T00:13:56;99592.66;;;4.09;99.76
40730;BME280;26418;50.070;8.436;2024-01-07T00:16:22;99591.03;;;4.08;100.00
40730;BME280;26418;50.070;8.436;2024-01-07T00:18:47;99584.34;;;4.01;99.89
40730;BME280;26418;50.070;8.436;2024-01-07T00:21:13;99585.69;;;3.98;99.98
40730;BME280;26418;50.070;8.436;2024-01-07T00:23:39;99599.06;;;4.08;100.00
40730;BME280;26418;50.070;8.436;2024-01-07T00:26:04;99604.97;;;4.11;100.00
40730;BME280;26418;50.070;8.436;2024-01-07T00:28:30;99611.13;;;4.16;100.00
40730;BME280;26418;50.070;8.436;2024-01-07T00:30:55;99604.72;;;4.17;99.92
40730;BME280;26418;50.070;8.436;2024-01-07T00:33:21;99586.47;;;4.04;99.76
40730;BME280;26418;50.070;8.436;2024-01-07T00:35:46;99608.47;;;4.16;99.95
40730;BME280;26418;50.070;8.436;2024-01-07T00:38:12;99612.47;;;4.24;99.92
40730;BME280;26418;50.070;8.436;2024-01-07T00:40:37;99616.75;;;4.25;99.63
40730;BME280;26418;50.070;8.436;2024-01-07T00:43:03;99616.47;;;4.21;99.43
40730;BME280;26418;50.070;8.436;2024-01-07T00:45:29;99603.09;;;4.11;99.30
40730;BME280;26418;50.070;8.436;2024-01-07T00:47:54;99611.13;;;4.11;99.69
40730;BME280;26418;50.070;8.436;2024-01-07T00:50:20;99603.63;;;4.03;99.68
40730;BME280;26418;50.070;8.436;2024-01-07T00:52:45;99607.38;;;4.07;100.00
40730;BME280;26418;50.070;8.436;2024-01-07T00:55:11;99616.72;;;4.09;100.00
40730;BME280;26418;50.070;8.436;2024-01-07T00:57:37;99618.34;;;4.16;100.00
40730;BME280;26418;50.070;8.436;2024-01-07T01:00:06;99623.44;;;4.17;100.00
40730;BME280;26418;50.070;8.436;2024-01-07T01:02:32;99613.53;;;4.13;100.00
40730;BME280;26418;50.070;8.436;2024-01-07T01:04:57;99620.78;;;4.17;99.46
40730;BME280;26418;50.070;8.436;2024-01-07T01:07:23;99622.66;;;4.27;99.28
40730;BME280;26418;50.070;8.436;2024-01-07T01:09:48;99637.66;;;4.33;99.62
40730;BME280;26418;50.070;8.436;2024-01-07T01:12:14;99622.66;;;4.22;99.61
40730;BME280;26418;50.070;8.436;2024-01-07T01:14:40;99639.81;;;4.31;99.66
40730;BME280;26418;50.070;8.436;2024-01-07T01:17:06;99636.03;;;4.22;99.39
40730;BME280;26418;50.070;8.436;2024-01-07T01:19:31;99635.25;;;4.27;99.23
40730;BME280;26418;50.070;8.436;2024-01-07T01:21:57;99637.09;;;4.21;99.34
40730;BME280;26418;50.070;8.436;2024-01-07T01:24:23;99645.97;;;4.27;99.31
40730;BME280;26418;50.070;8.436;2024-01-07T01:26:48;99634.94;;;4.18;99.39
40730;BME280;26418;50.070;8.436;2024-01-07T01:29:14;99640.56;;;4.21;99.15
40730;BME280;26418;50.070;8.436;2024-01-07T01:31:39;99658.28;;;4.33;98.98
40730;BME280;26418;50.070;8.436;2024-01-07T01:34:05;99659.06;;;4.33;99.08
40730;BME280;26418;50.070;8.436;2024-01-07T01:36:31;99660.72;;;4.39;98.85
40730;BME280;26418;50.070;8.436;2024-01-07T01:38:57;99662.56;;;4.39;97.93
40730;BME280;26418;50.070;8.436;2024-01-07T01:41:22;99662.56;;;4.34;97.88
40730;BME280;26418;50.070;8.436;2024-01-07T01:43:48;99655.84;;;4.26;98.21
40730;BME280;26418;50.070;8.436;2024-01-07T01:46:14;99666.03;;;4.29;97.82
40730;BME280;26418;50.070;8.436;2024-01-07T01:48:39;99659.59;;;4.25;98.14
40730;BME280;26418;50.070;8.436;2024-01-07T01:51:06;99661.75;;;4.28;98.13
40730;BME280;26418;50.070;8.436;2024-01-07T01:53:32;99674.88;;;4.35;98.35
40730;BME280;26418;50.070;8.436;2024-01-07T01:56:01;99661.22;;;4.36;97.70
40730;BME280;26418;50.070;8.436;2024-01-07T01:58:28;99670.91;;;4.48;97.08
40730;BME280;26418;50.070;8.436;2024-01-07T02:00:54;99675.69;;;4.46;96.51
40730;BME280;26418;50.070;8.436;2024-01-07T02:03:20;99674.63;;;4.47;96.77
40730;BME280;26418;50.070;8.436;2024-01-07T02:05:48;99667.66;;;4.46;96.05
40730;BME280;26418;50.070;8.436;2024-01-07T02:08:14;99658.00;;;4.34;95.89
40730;BME280;26418;50.070;8.436;2024-01-07T02:10:40;99655.06;;;4.31;96.17
40730;BME280;26418;50.070;8.436;2024-01-07T02:13:05;99652.66;;;4.29;96.36
40730;BME280;26418;50.070;8.436;2024-01-07T02:15:31;99659.63;;;4.40;96.13
40730;BME280;26418;50.070;8.436;2024-01-07T02:17:57;99649.44;;;4.27;95.24
40730;BME280;26418;50.070;8.436;2024-01-07T02:20:23;99663.09;;;4.31;95.79
40730;BME280;26418;50.070;8.436;2024-01-07T02:22:49;99668.44;;;4.31;96.05
40730;BME280;26418;50.070;8.436;2024-01-07T02:25:15;99655.03;;;4.20;95.53
40730;BME280;26418;50.070;8.436;2024-01-07T02:27:40;99654.50;;;4.23;95.30
40730;BME280;26418;50.070;8.436;2024-01-07T02:30:06;99663.31;;;4.24;95.14
40730;BME280;26418;50.070;8.436;2024-01-07T02:32:32;99667.38;;;4.27;96.15
40730;BME280;26418;50.070;8.436;2024-01-07T02:35:00;99677.53;;;4.24;95.94
40730;BME280;26418;50.070;8.436;2024-01-07T02:37:25;99668.69;;;4.19;95.90
40730;BME280;26418;50.070;8.436;2024-01-07T02:39:52;99674.84;;;4.30;95.87
40730;BME280;26418;50.070;8.436;2024-01-07T02:42:18;99674.34;;;4.33;95.11
40730;BME280;26418;50.070;8.436;2024-01-07T02:44:43;99668.97;;;4.28;94.52
40730;BME280;26418;50.070;8.436;2024-01-07T02:47:09;99677.28;;;4.31;94.43
40730;BME280;26418;50.070;8.436;2024-01-07T02:49:35;99665.50;;;4.27;94.49
40730;BME280;26418;50.070;8.436;2024-01-07T02:52:00;99672.19;;;4.30;94.10
40730;BME280;26418;50.070;8.436;2024-01-07T02:54:26;99668.72;;;4.29;94.75
40730;BME280;26418;50.070;8.436;2024-01-07T02:56:51;99648.88;;;4.15;93.79
40730;BME280;26418;50.070;8.436;2024-01-07T02:59:17;99671.38;;;4.29;94.28
40730;BME280;26418;50.070;8.436;2024-01-07T03:01:42;99671.13;;;4.25;93.59
40730;BME280;26418;50.070;8.436;2024-01-07T03:04:10;99661.75;;;4.23;93.80
40730;BME280;26418;50.070;8.436;2024-01-07T03:06:35;99679.41;;;4.29;94.22
40730;BME280;26418;50.070;8.436;2024-01-07T03:09:01;99679.16;;;4.31;94.30
40730;BME280;26418;50.070;8.436;2024-01-07T03:11:26;99673.25;;;4.23;94.26
40730;BME280;26418;50.070;8.436;2024-01-07T03:13:52;99682.66;;;4.31;94.76
40730;BME280;26418;50.070;8.436;2024-01-07T03:16:25;99677.53;;;4.24;94.16
40730;BME280;26418;50.070;8.436;2024-01-07T03:18:51;99677.25;;;4.26;95.01
40730;BME280;26418;50.070;8.436;2024-01-07T03:21:23;99681.56;;;4.27;95.40
40730;BME280;26418;50.070;8.436;2024-01-07T03:23:50;99683.16;;;4.23;95.60
40730;BME280;26418;50.070;8.436;2024-01-07T03:26:16;99690.63;;;4.21;95.95
40730;BME280;26418;50.070;8.436;2024-01-07T03:28:42;99683.13;;;4.13;96.24
40730;BME280;26418;50.070;8.436;2024-01-07T03:31:09;99693.59;;;4.19;96.60
40730;BME280;26418;50.070;8.436;2024-01-07T03:33:37;99680.97;;;4.09;96.87
40730;BME280;26418;50.070;8.436;2024-01-07T03:36:09;99676.94;;;4.02;96.71
40730;BME280;26418;50.070;8.436;2024-01-07T03:38:35;99688.16;;;4.04;97.09
40730;BME280;26418;50.070;8.436;2024-01-07T03:41:01;99682.53;;;4.00;97.30
40730;BME280;26418;50.070;8.436;2024-01-07T03:43:27;99688.94;;;3.99;97.65
40730;BME280;26418;50.070;8.436;2024-01-07T03:45:52;99673.44;;;3.96;98.11
40730;BME280;26418;50.070;8.436;2024-01-07T03:48:18;99676.91;;;3.97;97.92
40730;BME280;26418;50.070;8.436;2024-01-07T03:50:44;99689.53;;;4.12;98.34
40730;BME280;26418;50.070;8.436;2024-01-07T03:53:09;99684.19;;;4.06;97.65
40730;BME280;26418;50.070;8.436;2024-01-07T03:55:35;99671.03;;;4.00;97.94
40730;BME280;26418;50.070;8.436;2024-01-07T03:58:00;99691.44;;;4.11;98.11
40730;BME280;26418;50.070;8.436;2024-01-07T04:00:26;99699.97;;;4.08;98.11
40730;BME280;26418;50.070;8.436;2024-01-07T04:02:51;99701.03;;;4.07;97.75
40730;BME280;26418;50.070;8.436;2024-01-07T04:05:17;99705.56;;;4.01;97.92
40730;BME280;26418;50.070;8.436;2024-01-07T04:07:43;99700.19;;;3.96;98.70
40730;BME280;26418;50.070;8.436;2024-01-07T04:10:08;99713.31;;;3.98;98.69
40730;BME280;26418;50.070;8.436;2024-01-07T04:12:34;99671.72;;;3.74;98.73
40730;BME280;26418;50.070;8.436;2024-01-07T04:15:00;99727.50;;;3.98;98.83
40730;BME280;26418;50.070;8.436;2024-01-07T04:17:25;99709.50;;;3.88;99.40
40730;BME280;26418;50.070;8.436;2024-01-07T04:19:52;99709.78;;;3.87;100.00
40730;BME280;26418;50.070;8.436;2024-01-07T04:22:17;99721.06;;;3.99;100.00
40730;BME280;26418;50.070;8.436;2024-01-07T04:24:43;99735.22;;;3.94;100.00
40730;BME280;26418;50.070;8.436;2024-01-07T04:27:09;99715.16;;;3.92;100.00
40730;BME280;26418;50.070;8.436;2024-01-07T04:29:34;99713.75;;;3.79;100.00
40730;BME280;26418;50.070;8.436;2024-01-07T04:32:00;99718.03;;;3.75;100.00
40730;BME280;26418;50.070;8.436;2024-01-07T04:34:26;99723.63;;;3.73;100.00
40730;BME280;26418;50.070;8.436;2024-01-07T04:36:51;99731.41;;;3.75;100.00
40730;BME280;26418;50.070;8.436;2024-01-07T04:39:17;99738.63;;;3.80;100.00
40730;BME280;26418;50.070;8.436;2024-01-07T04:41:43;99737.31;;;3.77;100.00
40730;BME280;26418;50.070;8.436;2024-01-07T04:44:09;99737.31;;;3.77;100.00
40730;BME280;26418;50.070;8.436;2024-01-07T04:46:37;99733.50;;;3.73;100.00
40730;BME280;26418;50.070;8.436;2024-01-07T04:49:03;99745.31;;;3.77;100.00
40730;BME280;26418;50.070;8.436;2024-01-07T04:51:29;99745.28;;;3.72;100.00
40730;BME280;26418;50.070;8.436;2024-01-07T04:53:54;99743.16;;;3.74;100.00
40730;BME280;26418;50.070;8.436;2024-01-07T04:56:20;99743.72;;;3.81;100.00
40730;BME280;26418;50.070;8.436;2024-01-07T04:58:45;99734.34;;;3.73;100.00
40730;BME280;26418;50.070;8.436;2024-01-07T05:01:11;99752.03;;;3.80;100.00
40730;BME280;26418;50.070;8.436;2024-01-07T05:03:37;99757.66;;;3.83;100.00
40730;BME280;26418;50.070;8.436;2024-01-07T05:06:03;99763.56;;;3.85;100.00
40730;BME280;26418;50.070;8.436;2024-01-07T05:08:29;99764.34;;;3.81;100.00
40730;BME280;26418;50.070;8.436;2024-01-07T05:10:55;99757.59;;;3.78;100.00
40730;BME280;26418;50.070;8.436;2024-01-07T05:13:21;99757.31;;;3.69;100.00
40730;BME280;26418;50.070;8.436;2024-01-07T05:15:47;99766.16;;;3.75;100.00
40730;BME280;26418;50.070;8.436;2024-01-07T05:18:21;99788.44;;;3.86;100.00
40730;BME280;26418;50.070;8.436;2024-01-07T05:20:47;99785.75;;;3.86;100.00
40730;BME280;26418;50.070;8.436;2024-01-07T05:23:13;99786.03;;;3.89;100.00
40730;BME280;26418;50.070;8.436;2024-01-07T05:25:38;99785.25;;;3.94;100.00
40730;BME280;26418;50.070;8.436;2024-01-07T05:28:04;99783.38;;;3.89;100.00
40730;BME280;26418;50.070;8.436;2024-01-07T05:30:30;99785.19;;;3.84;100.00
40730;BME280;26418;50.070;8.436;2024-01-07T05:32:55;99784.41;;;3.83;100.00
40730;BME280;26418;50.070;8.436;2024-01-07T05:35:21;99791.03;;;3.75;100.00
40730;BME280;26418;50.070;8.436;2024-01-07T05:37:46;99797.72;;;3.73;100.00
40730;BME280;26418;50.070;8.436;2024-01-07T05:40:12;99792.88;;;3.70;100.00
40730;BME280;26418;50.070;8.436;2024-01-07T05:42:38;99796.03;;;3.61;100.00
40730;BME280;26418;50.070;8.436;2024-01-07T05:45:03;99813.16;;;3.60;100.00
40730;BME280;26418;50.070;8.436;2024-01-07T05:47:29;99807.75;;;3.55;100.00
40730;BME280;26418;50.070;8.436;2024-01-07T05:49:55;99812.84;;;3.57;100.00
40730;BME280;26418;50.070;8.436;2024-01-07T05:52:21;99812.00;;;3.51;100.00
40730;BME280;26418;50.070;8.436;2024-01-07T05:54:46;99809.88;;;3.53;100.00
40730;BME280;26418;50.070;8.436;2024-01-07T05:57:12;99816.81;;;3.54;100.00
40730;BME280;26418;50.070;8.436;2024-01-07T05:59:38;99818.72;;;3.54;100.00
40730;BME280;26418;50.070;8.436;2024-01-07T06:02:03;99816.44;;;3.40;100.00
40730;BME280;26418;50.070;8.436;2024-01-07T06:04:29;99835.00;;;3.52;100.00
40730;BME280;26418;50.070;8.436;2024-01-07T06:06:54;99839.28;;;3.53;100.00
40730;BME280;26418;50.070;8.436;2024-01-07T06:09:20;99842.22;;;3.52;100.00
40730;BME280;26418;50.070;8.436;2024-01-07T06:11:46;99854.25;;;3.54;100.00
40730;BME280;26418;50.070;8.436;2024-01-07T06:14:12;99843.38;;;3.61;100.00
40730;BME280;26418;50.070;8.436;2024-01-07T06:16:37;99851.38;;;3.61;100.00
40730;BME280;26418;50.070;8.436;2024-01-07T06:19:03;99859.91;;;3.58;100.00
40730;BME280;26418;50.070;8.436;2024-01-07T06:21:28;99851.09;;;3.57;100.00
40730;BME280;26418;50.070;8.436;2024-01-07T06:23:54;99849.28;;;3.63;100.00
40730;BME280;26418;50.070;8.436;2024-01-07T06:26:20;99857.78;;;3.60;100.00
40730;BME280;26418;50.070;8.436;2024-01-07T06:28:45;99848.06;;;3.49;100.00
40730;BME280;26418;50.070;8.436;2024-01-07T06:31:11;99871.34;;;3.48;100.00
40730;BME280;26418;50.070;8.436;2024-01-07T06:33:36;99862.22;;;3.44;100.00
40730;BME280;26418;50.070;8.436;2024-01-07T06:36:02;99869.41;;;3.43;100.00
40730;BME280;26418;50.070;8.436;2024-01-07T06:38:28;99874.97;;;3.37;100.00
40730;BME280;26418;50.070;8.436;2024-01-07T06:40:53;99888.16;;;3.49;100.00
40730;BME280;26418;50.070;8.436;2024-01-07T06:43:27;99882.81;;;3.49;100.00
40730;BME280;26418;50.070;8.436;2024-01-07T06:45:52;99891.66;;;3.49;100.00
40730;BME280;26418;50.070;8.436;2024-01-07T06:48:19;99896.25;;;3.54;100.00
40730;BME280;26418;50.070;8.436;2024-01-07T06:50:44;99877.41;;;3.38;100.00
40730;BME280;26418;50.070;8.436;2024-01-07T06:53:10;99877.41;;;3.38;100.00
40730;BME280;26418;50.070;8.436;2024-01-07T06:55:35;99897.78;;;3.44;100.00
40730;BME280;26418;50.070;8.436;2024-01-07T06:58:02;99892.63;;;3.38;99.68
40730;BME280;26418;50.070;8.436;2024-01-07T07:00:28;99915.88;;;3.37;99.23
40730;BME280;26418;50.070;8.436;2024-01-07T07:02:53;99911.56;;;3.31;96.97
40730;BME280;26418;50.070;8.436;2024-01-07T07:05:19;99923.31;;;3.30;96.07
40730;BME280;26418;50.070;8.436;2024-01-07T07:07:44;99913.28;;;3.20;96.37
40730;BME280;26418;50.070;8.436;2024-01-07T07:10:10;99930.75;;;3.28;95.27
40730;BME280;26418;50.070;8.436;2024-01-07T07:12:36;99926.50;;;3.32;94.59
40730;BME280;26418;50.070;8.436;2024-01-07T07:15:02;99921.00;;;3.17;95.32
40730;BME280;26418;50.070;8.436;2024-01-07T07:17:27;99932.81;;;3.21;95.96
40730;BME280;26418;50.070;8.436;2024-01-07T07:19:53;99935.38;;;3.10;96.17
40730;BME280;26418;50.070;8.436;2024-01-07T07:22:18;99928.94;;;3.06;96.14
40730;BME280;26418;50.070;8.436;2024-01-07T07:24:44;99933.94;;;3.03;96.13
40730;BME280;26418;50.070;8.436;2024-01-07T07:27:09;99934.16;;;2.96;96.26
40730;BME280;26418;50.070;8.436;2024-01-07T07:29:35;99950.19;;;2.96;96.36
40730;BME280;26418;50.070;8.436;2024-01-07T07:32:00;99947.44;;;2.91;95.81
40730;BME280;26418;50.070;8.436;2024-01-07T07:34:26;99953.03;;;2.89;95.80
40730;BME280;26418;50.070;8.436;2024-01-07T07:36:51;99955.75;;;2.94;95.57
40730;BME280;26418;50.070;8.436;2024-01-07T07:39:17;99959.06;;;3.02;95.19
40730;BME280;26418;50.070;8.436;2024-01-07T07:41:42;99964.84;;;2.93;95.08
40730;BME280;26418;50.070;8.436;2024-01-07T07:44:08;99966.38;;;2.89;95.07
40730;BME280;26418;50.070;8.436;2024-01-07T07:46:34;99962.25;;;2.81;95.19
40730;BME280;26418;50.070;8.436;2024-01-07T07:48:59;99975.09;;;2.79;95.55
40730;BME280;26418;50.070;8.436;2024-01-07T07:51:26;99976.03;;;2.73;96.09
40730;BME280;26418;50.070;8.436;2024-01-07T07:53:52;99984.41;;;2.77;96.34
40730;BME280;26418;50.070;8.436;2024-01-07T07:56:17;99987.81;;;2.72;96.43
40730;BME280;26418;50.070;8.436;2024-01-07T07:58:42;99987.31;;;2.75;96.52
40730;BME280;26418;50.070;8.436;2024-01-07T08:01:08;99994.00;;;2.78;96.96
40730;BME280;26418;50.070;8.436;2024-01-07T08:03:34;99990.22;;;2.74;96.96
40730;BME280;26418;50.070;8.436;2024-01-07T08:06:00;99991.28;;;2.73;96.46
40730;BME280;26418;50.070;8.436;2024-01-07T08:08:25;99996.31;;;2.69;96.01
40730;BME280;26418;50.070;8.436;2024-01-07T08:10:51;100003.31;;;2.75;96.27
40730;BME280;26418;50.070;8.436;2024-01-07T08:13:16;100004.16;;;2.76;96.61
40730;BME280;26418;50.070;8.436;2024-01-07T08:15:42;100014.16;;;2.86;96.58
40730;BME280;26418;50.070;8.436;2024-01-07T08:18:08;100002.53;;;2.75;96.26
40730;BME280;26418;50.070;8.436;2024-01-07T08:20:33;100004.38;;;2.74;95.99
40730;BME280;26418;50.070;8.436;2024-01-07T08:22:59;100000.66;;;2.75;96.12
40730;BME280;26418;50.070;8.436;2024-01-07T08:25:25;100016.75;;;2.80;96.00
40730;BME280;26418;50.070;8.436;2024-01-07T08:27:51;100024.78;;;2.80;95.16
40730;BME280;26418;50.070;8.436;2024-01-07T08:30:16;100035.03;;;2.89;95.45
40730;BME280;26418;50.070;8.436;2024-01-07T08:32:42;100021.38;;;2.85;94.95
40730;BME280;26418;50.070;8.436;2024-01-07T08:35:08;100041.75;;;2.91;94.91
40730;BME280;26418;50.070;8.436;2024-01-07T08:37:34;100031.38;;;2.95;95.57
40730;BME280;26418;50.070;8.436;2024-01-07T08:40:00;100034.09;;;3.00;95.07
40730;BME280;26418;50.070;8.436;2024-01-07T08:42:26;100042.38;;;2.98;94.94
40730;BME280;26418;50.070;8.436;2024-01-07T08:44:52;100045.53;;;2.95;95.12
40730;BME280;26418;50.070;8.436;2024-01-07T08:47:18;100036.47;;;2.96;94.81
40730;BME280;26418;50.070;8.436;2024-01-07T08:49:43;100038.75;;;2.88;94.87
40730;BME280;26418;50.070;8.436;2024-01-07T08:52:09;100049.66;;;2.86;94.45
40730;BME280;26418;50.070;8.436;2024-01-07T08:54:35;100053.00;;;2.93;94.73
40730;BME280;26418;50.070;8.436;2024-01-07T08:57:00;100051.19;;;2.99;94.25
40730;BME280;26418;50.070;8.436;2024-01-07T08:59:26;100061.66;;;3.01;93.36
40730;BME280;26418;50.070;8.436;2024-01-07T09:01:51;100056.00;;;2.97;92.48
40730;BME280;26418;50.070;8.436;2024-01-07T09:04:17;100067.72;;;2.96;91.48
40730;BME280;26418;50.070;8.436;2024-01-07T09:06:44;100068.16;;;2.88;91.75
40730;BME280;26418;50.070;8.436;2024-01-07T09:09:10;100077.13;;;2.81;92.78
40730;BME280;26418;50.070;8.436;2024-01-07T09:11:36;100064.28;;;2.78;93.12
40730;BME280;26418;50.070;8.436;2024-01-07T09:14:02;100079.31;;;2.85;93.60
40730;BME280;26418;50.070;8.436;2024-01-07T09:16:31;100083.34;;;2.87;92.45
40730;BME280;26418;50.070;8.436;2024-01-07T09:18:57;100091.94;;;2.89;92.28
40730;BME280;26418;50.070;8.436;2024-01-07T09:21:22;100086.34;;;2.91;92.37
40730;BME280;26418;50.070;8.436;2024-01-07T09:23:51;100103.81;;;2.98;93.09
40730;BME280;26418;50.070;8.436;2024-01-07T09:26:16;100108.59;;;3.13;93.47
40730;BME280;26418;50.070;8.436;2024-01-07T09:28:42;100092.97;;;3.05;91.54
40730;BME280;26418;50.070;8.436;2024-01-07T09:31:08;100109.63;;;3.12;90.98
40730;BME280;26418;50.070;8.436;2024-01-07T09:33:33;100113.84;;;3.08;90.88
40730;BME280;26418;50.070;8.436;2024-01-07T09:35:59;100121.31;;;3.06;89.18
40730;BME280;26418;50.070;8.436;2024-01-07T09:38:24;100128.50;;;3.06;88.83
40730;BME280;26418;50.070;8.436;2024-01-07T09:40:51;100128.34;;;2.95;88.77
40730;BME280;26418;50.070;8.436;2024-01-07T09:43:19;100131.53;;;2.92;89.12
40730;BME280;26418;50.070;8.436;2024-01-07T09:45:49;100126.81;;;2.82;89.25
40730;BME280;26418;50.070;8.436;2024-01-07T09:48:15;100136.44;;;2.83;89.71
40730;BME280;26418;50.070;8.436;2024-01-07T09:50:42;100141.00;;;2.83;89.75
40730;BME280;26418;50.070;8.436;2024-01-07T09:53:14;100132.16;;;2.82;89.62
40730;BME280;26418;50.070;8.436;2024-01-07T09:55:55;100141.06;;;2.71;88.45
40730;BME280;26418;50.070;8.436;2024-01-07T09:58:22;100141.31;;;2.70;87.52
40730;BME280;26418;50.070;8.436;2024-01-07T10:00:48;100132.31;;;2.59;87.53
40730;BME280;26418;50.070;8.436;2024-01-07T10:03:14;100141.16;;;2.59;87.69
40730;BME280;26418;50.070;8.436;2024-01-07T10:05:40;100155.16;;;2.66;87.16
40730;BME280;26418;50.070;8.436;2024-01-07T10:08:06;100147.22;;;2.55;87.20
40730;BME280;26418;50.070;8.436;2024-01-07T10:10:33;100145.75;;;2.47;87.87
40730;BME280;26418;50.070;8.436;2024-01-07T10:13:00;100140.53;;;2.40;87.94
40730;BME280;26418;50.070;8.436;2024-01-07T10:15:25;100151.00;;;2.42;87.64
40730;BME280;26418;50.070;8.436;2024-01-07T10:17:54;100152.56;;;2.55;88.04
40730;BME280;26418;50.070;8.436;2024-01-07T10:20:20;100159.13;;;2.64;87.09
40730;BME280;26418;50.070;8.436;2024-01-07T10:22:49;100150.94;;;2.71;86.92
40730;BME280;26418;50.070;8.436;2024-01-07T10:25:15;100158.72;;;2.72;86.98
40730;BME280;26418;50.070;8.436;2024-01-07T10:27:41;100172.88;;;2.73;86.06
40730;BME280;26418;50.070;8.436;2024-01-07T10:30:07;100157.81;;;2.66;85.02
40730;BME280;26418;50.070;8.436;2024-01-07T10:32:35;100176.75;;;2.65;86.54
40730;BME280;26418;50.070;8.436;2024-01-07T10:35:03;100157.78;;;2.49;85.59
40730;BME280;26418;50.070;8.436;2024-01-07T10:37:29;100169.03;;;2.51;85.49
40730;BME280;26418;50.070;8.436;2024-01-07T10:39:57;100169.50;;;2.48;85.55
40730;BME280;26418;50.070;8.436;2024-01-07T10:42:27;100161.50;;;2.48;87.08
40730;BME280;26418;50.070;8.436;2024-01-07T10:44:53;100171.66;;;2.63;85.45
40730;BME280;26418;50.070;8.436;2024-01-07T10:47:20;100176.28;;;2.68;84.78
40730;BME280;26418;50.070;8.436;2024-01-07T10:49:50;100175.81;;;2.71;84.69
40730;BME280;26418;50.070;8.436;2024-01-07T10:52:16;100167.22;;;2.69;84.04
40730;BME280;26418;50.070;8.436;2024-01-07T10:54:42;100168.72;;;2.65;84.52
40730;BME280;26418;50.070;8.436;2024-01-07T10:57:48;100171.00;;;2.73;84.25
40730;BME280;26418;50.070;8.436;2024-01-07T11:00:07;100172.41;;;2.76;83.83
40730;BME280;26418;50.070;8.436;2024-01-07T11:02:44;100162.13;;;2.85;82.49
40730;BME280;26418;50.070;8.436;2024-01-07T11:08:07;100165.38;;;2.87;80.48
40730;BME280;26418;50.070;8.436;2024-01-07T11:10:50;100176.50;;;2.83;81.39
40730;BME280;26418;50.070;8.436;2024-01-07T11:13:32;100173.66;;;2.73;80.87
40730;BME280;26418;50.070;8.436;2024-01-07T11:15:58;100171.78;;;2.57;81.37
40730;BME280;26418;50.070;8.436;2024-01-07T11:18:26;100176.75;;;2.65;81.44
40730;BME280;26418;50.070;8.436;2024-01-07T11:20:58;100176.59;;;2.55;81.48
40730;BME280;26418;50.070;8.436;2024-01-07T11:23:42;100171.41;;;2.65;80.50
40730;BME280;26418;50.070;8.436;2024-01-07T11:26:08;100162.25;;;2.61;80.97
40730;BME280;26418;50.070;8.436;2024-01-07T11:31:20;100170.06;;;2.79;80.30
40730;BME280;26418;50.070;8.436;2024-01-07T11:33:50;100167.19;;;2.86;80.43
40730;BME280;26418;50.070;8.436;2024-01-07T11:36:16;100177.75;;;2.93;80.70
40730;BME280;26418;50.070;8.436;2024-01-07T11:38:47;100165.22;;;2.93;80.24
40730;BME280;26418;50.070;8.436;2024-01-07T11:41:14;100158.63;;;3.01;78.58
40730;BME280;26418;50.070;8.436;2024-01-07T11:44:00;100168.19;;;2.97;78.90
40730;BME280;26418;50.070;8.436;2024-01-07T11:46:27;100168.03;;;2.87;78.75
40730;BME280;26418;50.070;8.436;2024-01-07T11:48:54;100163.16;;;2.83;78.86
40730;BME280;26418;50.070;8.436;2024-01-07T11:51:29;100155.72;;;2.69;78.44
40730;BME280;26418;50.070;8.436;2024-01-07T11:53:59;100173.94;;;2.72;78.80
40730;BME280;26418;50.070;8.436;2024-01-07T11:56:25;100187.69;;;2.80;79.74
40730;BME280;26418;50.070;8.436;2024-01-07T11:58:54;100172.72;;;2.79;78.83
40730;BME280;26418;50.070;8.436;2024-01-07T12:01:21;100196.75;;;2.79;78.67
40730;BME280;26418;50.070;8.436;2024-01-07T12:03:47;100179.59;;;2.75;78.15
40730;BME280;26418;50.070;8.436;2024-01-07T12:06:13;100195.72;;;2.80;78.82
40730;BME280;26418;50.070;8.436;2024-01-07T12:08:42;100208.56;;;2.83;78.12
40730;BME280;26418;50.070;8.436;2024-01-07T12:11:09;100200.47;;;2.78;77.98
40730;BME280;26418;50.070;8.436;2024-01-07T12:13:37;100197.63;;;2.68;77.88
40730;BME280;26418;50.070;8.436;2024-01-07T12:16:04;100206.47;;;2.69;77.75
40730;BME280;26418;50.070;8.436;2024-01-07T12:18:30;100209.88;;;2.64;78.00
40730;BME280;26418;50.070;8.436;2024-01-07T12:20:57;100205.63;;;2.51;78.24
40730;BME280;26418;50.070;8.436;2024-01-07T12:23:24;100204.94;;;2.44;78.33
40730;BME280;26418;50.070;8.436;2024-01-07T12:25:51;100205.75;;;2.44;78.75
40730;BME280;26418;50.070;8.436;2024-01-07T12:28:17;100200.56;;;2.38;77.68
40730;BME280;26418;50.070;8.436;2024-01-07T12:30:44;100210.19;;;2.39;78.57
40730;BME280;26418;50.070;8.436;2024-01-07T12:33:10;100182.41;;;2.23;78.40
40730;BME280;26418;50.070;8.436;2024-01-07T12:35:36;100211.28;;;2.26;79.05
40730;BME280;26418;50.070;8.436;2024-01-07T12:38:02;100207.81;;;2.25;78.97
40730;BME280;26418;50.070;8.436;2024-01-07T12:40:28;100205.84;;;2.20;78.44
40730;BME280;26418;50.070;8.436;2024-01-07T12:42:53;100206.91;;;2.19;79.30
40730;BME280;26418;50.070;8.436;2024-01-07T12:45:19;100212.03;;;2.09;79.22
40730;BME280;26418;50.070;8.436;2024-01-07T12:47:44;100201.84;;;1.94;79.61
40730;BME280;26418;50.070;8.436;2024-01-07T12:50:13;100223.78;;;1.96;80.44
40730;BME280;26418;50.070;8.436;2024-01-07T12:52:39;100221.22;;;1.89;80.55
40730;BME280;26418;50.070;8.436;2024-01-07T12:55:05;100220.19;;;1.91;80.97
40730;BME280;26418;50.070;8.436;2024-01-07T12:57:32;100228.88;;;1.98;80.85
40730;BME280;26418;50.070;8.436;2024-01-07T12:59:58;100210.94;;;1.81;80.13
40730;BME280;26418;50.070;8.436;2024-01-07T13:02:23;100231.53;;;1.98;79.98
40730;BME280;26418;50.070;8.436;2024-01-07T13:04:50;100231.53;;;1.98;79.50
40730;BME280;26418;50.070;8.436;2024-01-07T13:07:15;100241.69;;;1.84;79.48